Date,TemperatureHighF,TemperatureAvgF,TemperatureLowF,DewpointHighF,DewpointAvgF,DewpointLowF,HumidityHigh,HumidityAvg,HumidityLow,PressureMaxIn,PressureMinIn,WindSpeedMaxMPH,WindSpeedAvgMPH,GustSpeedMaxMPH,PrecipitationSumIn
2013-11-1,68,58,49,51,37,25,68,48,26,17.72,17.72,0,0,0,0.00
2013-11-2,67,63,55,54,48,43,76,60,43,17.72,17.72,0,0,0,0.00
2013-11-3,71,66,59,54,42,31,67,44,23,17.72,17.72,0,0,0,0.00
2013-11-4,66,61,58,51,40,27,74,47,23,17.72,17.72,0,0,0,0.39
2013-11-5,68,58,49,60,42,21,83,58,28,17.72,17.72,0,0,0,0.47
2013-11-6,67,55,45,42,30,23,57,41,25,17.72,17.72,0,0,0,0.00
2013-11-10,63,57,50,46,37,29,79,50,29,17.72,17.72,0,0,0,0.47
2013-11-11,56,54,49,31,18,14,48,25,20,17.72,17.72,0,0,0,0.12
2013-11-12,62,55,52,24,20,15,33,25,20,17.72,17.72,0,0,0,0.00
2013-11-13,63,57,52,32,25,20,40,29,24,17.72,17.72,0,0,0,0.00
2013-11-14,64,55,52,30,22,18,36,27,22,17.72,17.72,0,0,0,0.00
2013-11-15,60,55,52,23,21,19,31,26,24,17.72,17.72,0,0,0,0.00
2013-11-16,61,53,45,24,20,17,39,28,21,17.72,17.72,0,0,0,0.00
2013-11-17,59,53,48,29,23,17,42,32,24,17.72,17.72,0,0,0,0.00
2013-11-18,68,56,48,38,30,25,48,37,23,17.72,17.72,0,0,0,0.00
2013-11-19,60,57,52,51,46,35,83,67,42,17.72,17.72,0,0,0,2.40
2013-11-20,65,55,51,56,40,20,84,60,25,17.72,17.72,0,0,0,0.12
2013-11-21,58,53,48,33,22,17,49,30,22,17.72,17.72,0,0,0,0.08
2013-11-22,54,50,46,40,27,19,70,42,28,17.72,17.72,0,0,0,0.16
2013-11-23,52,49,47,40,34,27,69,57,44,17.72,17.72,0,0,0,0.79
2013-11-24,62,50,46,37,25,18,67,38,22,17.72,17.72,0,0,0,0.08
2013-11-25,50,44,34,23,10,0,38,25,19,30.03,17.72,0,0,0,0.00
2013-11-26,48,38,30,8,2,-3,25,22,19,30.09,30.00,0,0,0,0.00
2013-11-27,41,38,34,5,2,-1,25,22,21,30.33,30.09,0,0,0,0.00
2013-11-28,55,40,34,14,8,3,32,27,18,30.36,30.30,0,0,0,0.00
2013-11-29,58,43,35,20,13,7,40,30,19,30.30,30.03,0,0,0,0.00
2013-11-30,57,48,42,27,20,12,41,32,24,30.06,29.88,0,0,0,0.00